Time;durP1;ratioP1;P1;durP2;ratioP2;P2;SDS_P1;SDS_P2;PMS_P1;PMS_P2;Temp;Humidity;BMP_temperature;BMP_pressure;BME280_temperature;BME280_humidity;BME280_pressure;Samples;Min_cycle;Max_cycle;Signal;HPM_P1;HPM_P2
2022/09/13 00:00:22;;;;;;;9.25;4.97;;;;;;;29.12;53.04;100675.13;4194481;28;20066;-64
2022/09/13 00:02:23;;;;;;;8.70;3.97;;;;;;;29.01;53.25;100660.63;4202822;28;20038;-64
2022/09/13 00:04:40;;;;;;;4.82;4.05;;;;;;;29.06;53.30;100682.16;4198096;28;20103;-64
2022/09/13 00:06:44;;;;;;;4.38;3.67;;;;;;;29.06;53.26;100670.88;4204153;28;20048;-63
2022/09/13 00:08:46;;;;;;;10.00;4.18;;;;;;;28.90;53.27;100650.91;4198458;28;20020;-64
2022/09/13 00:10:48;;;;;;;6.57;4.45;;;;;;;29.04;53.34;100673.19;4193540;28;20032;-63
2022/09/13 00:12:50;;;;;;;7.72;3.97;;;;;;;29.04;53.48;100673.19;4206454;28;20089;-64
2022/09/13 00:14:56;;;;;;;5.25;3.90;;;;;;;29.02;53.38;100682.00;4187236;28;20103;-64
2022/09/13 00:16:57;;;;;;;6.55;4.45;;;;;;;29.03;53.46;100682.81;4189649;28;20094;-63
2022/09/13 00:18:59;;;;;;;4.20;3.80;;;;;;;29.02;53.45;100675.56;4203623;28;20043;-63
2022/09/13 00:21:10;;;;;;;6.72;4.35;;;;;;;29.00;53.64;100683.50;4196919;28;20033;-63
2022/09/13 00:23:12;;;;;;;6.43;4.28;;;;;;;29.01;53.69;100686.00;4181426;28;20037;-63
2022/09/13 00:25:13;;;;;;;8.35;4.10;;;;;;;29.00;53.64;100683.50;4193107;28;20518;-63
2022/09/13 00:27:14;;;;;;;5.82;4.40;;;;;;;29.03;53.70;100694.91;4199452;28;20364;-64
2022/09/13 00:29:16;;;;;;;6.50;4.35;;;;;;;29.06;53.62;100693.41;4208792;28;20044;-64
2022/09/13 00:31:18;;;;;;;6.57;5.05;;;;;;;29.05;53.65;100700.22;4211361;28;20044;-62
2022/09/13 00:33:19;;;;;;;4.00;3.70;;;;;;;29.02;53.82;100693.28;4207689;28;20028;-63
2022/09/13 00:35:21;;;;;;;7.10;3.80;;;;;;;28.92;53.68;100688.00;4195279;28;20048;-65
2022/09/13 00:37:22;;;;;;;3.60;3.30;;;;;;;29.02;53.85;100709.34;4215338;28;20040;-63
2022/09/13 00:39:23;;;;;;;4.80;3.83;;;;;;;29.02;53.97;100721.44;4206932;28;20044;-64
2022/09/13 00:41:25;;;;;;;4.40;3.55;;;;;;;29.02;54.12;100741.16;4213704;28;20548;-63
2022/09/13 00:43:53;;;;;;;5.47;3.50;;;;;;;29.03;54.06;100737.16;4215266;28;20101;-64
2022/09/13 00:45:54;;;;;;;9.25;3.80;;;;;;;29.05;53.85;100734.84;4211345;28;20044;-63
2022/09/13 00:48:04;;;;;;;4.50;4.10;;;;;;;29.06;53.94;100744.94;4199267;28;20044;-63
2022/09/13 00:50:38;;;;;;;4.20;3.80;;;;;;;28.98;53.95;100730.91;4200804;28;20533;-62
2022/09/13 00:52:45;;;;;;;6.63;3.92;;;;;;;28.96;54.06;100710.72;4202968;28;20073;-63
2022/09/13 00:54:55;;;;;;;4.53;3.80;;;;;;;29.03;54.12;100737.16;4194063;28;20496;-64
2022/09/13 00:57:00;;;;;;;6.00;3.88;;;;;;;28.99;54.18;100727.75;4201942;28;20033;-63
2022/09/13 00:59:12;;;;;;;6.05;3.72;;;;;;;29.08;54.14;100750.22;4207270;28;20093;-62
2022/09/13 01:01:15;;;;;;;6.22;3.97;;;;;;;29.06;54.35;100761.03;4196781;28;20102;-63
2022/09/13 01:03:21;;;;;;;11.15;3.90;;;;;;;29.08;54.65;100767.97;4200019;28;20037;-63
2022/09/13 01:05:31;;;;;;;4.30;3.90;;;;;;;29.02;54.61;100760.06;4199180;28;20044;-63
2022/09/13 01:07:33;;;;;;;6.65;4.28;;;;;;;29.04;54.39;100774.63;4194033;28;20109;-63
2022/09/13 01:09:38;;;;;;;3.88;3.58;;;;;;;29.05;54.47;100776.28;4186716;28;20492;-64
2022/09/13 01:12:03;;;;;;;4.53;3.70;;;;;;;29.05;54.26;100776.28;4193914;28;20048;-63
2022/09/13 01:14:06;;;;;;;4.40;4.00;;;;;;;29.07;54.31;100783.22;4183133;28;20049;-62
2022/09/13 01:16:08;;;;;;;5.78;3.88;;;;;;;29.08;54.64;100781.22;4188543;28;20450;-62
2022/09/13 01:18:10;;;;;;;4.10;3.80;;;;;;;29.08;54.22;100769.97;4201128;28;20399;-63
2022/09/13 01:20:13;;;;;;;3.92;3.50;;;;;;;29.09;54.36;100763.16;4217008;28;20476;-63
2022/09/13 01:22:43;;;;;;;5.85;3.90;;;;;;;29.06;54.37;100761.84;4198140;28;20033;-62
2022/09/13 01:24:47;;;;;;;6.05;3.60;;;;;;;29.08;54.28;100753.06;4190240;28;20040;-63
2022/09/13 01:27:35;;;;;;;3.90;3.60;;;;;;;29.02;54.59;100754.44;4204171;28;20093;-63
2022/09/13 01:29:39;;;;;;;4.05;3.65;;;;;;;29.08;54.70;100764.31;4162624;28;20044;-63
2022/09/13 01:32:06;;;;;;;4.45;4.05;;;;;;;29.07;54.63;100751.41;4199074;28;20155;-62
2022/09/13 01:35:03;;;;;;;5.70;4.05;;;;;;;29.04;54.37;100740.81;4195401;28;21839;-63
2022/09/13 01:37:13;;;;;;;6.18;3.95;;;;;;;29.10;54.38;100750.72;4176280;28;20201;-63
2022/09/13 01:39:23;;;;;;;6.05;3.83;;;;;;;29.02;54.45;100726.25;4196415;28;20483;-63
2022/09/13 01:41:44;;;;;;;4.70;4.00;;;;;;;29.08;54.62;100739.78;4188345;28;20104;-63
2022/09/13 01:43:55;;;;;;;6.40;4.65;;;;;;;29.07;54.63;100734.50;4203206;28;20044;-63
2022/09/13 01:46:24;;;;;;;4.28;3.65;;;;;;;29.06;54.55;100735.69;4183521;28;20083;-63
2022/09/13 01:48:41;;;;;;;6.10;4.07;;;;;;;29.08;54.30;100742.59;4187679;28;20037;-63
2022/09/13 01:51:03;;;;;;;9.90;4.13;;;;;;;29.04;54.39;100738.81;4198864;28;20047;-63
2022/09/13 01:53:35;;;;;;;6.75;3.67;;;;;;;29.08;54.64;100748.25;4197039;28;20047;-63
2022/09/13 01:55:39;;;;;;;3.78;3.40;;;;;;;29.09;54.64;100738.63;4207478;28;20044;-64
2022/09/13 01:58:01;;;;;;;6.40;3.97;;;;;;;29.00;54.25;100714.47;4187056;28;20095;-62
2022/09/13 02:00:10;;;;;;;4.07;3.70;;;;;;;29.07;54.50;100724.06;4194217;28;20083;-63
2022/09/13 02:02:50;;;;;;;5.40;4.40;;;;;;;29.06;54.55;100716.78;4200798;28;20052;-64
2022/09/13 02:05:01;;;;;;;7.10;3.83;;;;;;;29.11;54.41;100724.19;4153500;28;20108;-64
2022/09/13 02:07:08;;;;;;;5.40;4.20;;;;;;;29.09;54.50;100718.91;4178734;28;20045;-63
2022/09/13 02:09:16;;;;;;;4.75;4.35;;;;;;;29.12;54.37;100717.38;4176345;28;20061;-64
2022/09/13 02:11:21;;;;;;;9.82;3.92;;;;;;;29.08;54.35;100713.59;4182870;28;20045;-63
2022/09/13 02:13:28;;;;;;;5.35;4.13;;;;;;;29.14;54.52;100723.53;4182924;28;20053;-63
2022/09/13 02:15:54;;;;;;;7.25;4.55;;;;;;;29.10;54.62;100726.19;4176844;28;20036;-65
2022/09/13 02:18:24;;;;;;;5.45;3.72;;;;;;;29.13;55.04;100727.50;4150152;28;20120;-65
2022/09/13 02:20:46;;;;;;;7.43;3.85;;;;;;;29.15;54.45;100729.97;4172822;28;20527;-64
2022/09/13 02:22:53;;;;;;;4.45;3.83;;;;;;;29.15;54.15;100736.44;4178705;28;20049;-65
2022/09/13 02:24:59;;;;;;;4.57;3.72;;;;;;;29.05;54.04;100717.94;4165781;28;20045;-64
2022/09/13 02:27:10;;;;;;;6.60;4.18;;;;;;;29.09;54.30;100723.69;4171368;28;20037;-65
2022/09/13 02:29:16;;;;;;;6.55;3.90;;;;;;;29.08;54.51;100728.50;4156652;28;20046;-63
2022/09/13 02:31:25;;;;;;;5.32;4.13;;;;;;;29.09;54.35;100729.34;4155318;28;20041;-64
2022/09/13 02:33:59;;;;;;;5.90;4.03;;;;;;;29.04;54.51;100732.34;4157445;28;20025;-62
2022/09/13 02:36:05;;;;;;;7.35;3.72;;;;;;;29.06;54.31;100738.50;4169795;28;20473;-63
2022/09/13 02:38:20;;;;;;;7.75;4.22;;;;;;;29.09;54.35;100737.78;4172342;28;20041;-64
2022/09/13 02:40:26;;;;;;;6.55;3.70;;;;;;;29.11;54.23;100741.09;4172875;28;20063;-62
2022/09/13 02:42:46;;;;;;;5.13;3.95;;;;;;;29.07;54.23;100731.69;4177647;28;20088;-64
2022/09/13 02:44:52;;;;;;;7.65;3.72;;;;;;;28.92;54.17;100710.56;4182095;28;20037;-64
2022/09/13 02:47:11;;;;;;;6.07;3.80;;;;;;;29.06;54.83;100733.69;4180653;28;20045;-64
2022/09/13 02:49:34;;;;;;;15.30;4.18;;;;;;;29.05;54.77;100732.03;4173904;28;20542;-64
2022/09/13 02:52:26;;;;;;;5.60;3.97;;;;;;;29.04;54.57;100729.53;4147661;28;20045;-63
2022/09/13 02:54:53;;;;;;;3.72;3.08;;;;;;;29.05;54.17;100719.94;4163283;28;20041;-64
2022/09/13 02:57:12;;;;;;;96.60;8.57;;;;;;;28.98;54.35;100711.19;4153102;28;20380;-65
2022/09/13 02:59:19;;;;;;;9.13;4.00;;;;;;;29.00;54.04;100703.22;4166574;28;20138;-65
2022/09/13 03:01:22;;;;;;;6.32;3.63;;;;;;;29.18;54.20;100729.28;4180402;28;20421;-65
2022/09/13 03:03:24;;;;;;;6.60;3.60;;;;;;;29.20;53.94;100724.16;4179101;28;20041;-65
2022/09/13 03:05:25;;;;;;;6.43;3.60;;;;;;;29.20;53.79;100736.22;4203700;28;20445;-65
2022/09/13 03:07:27;;;;;;;5.03;3.70;;;;;;;29.21;54.03;100735.06;4193442;28;20703;-65
2022/09/13 03:09:30;;;;;;;6.60;3.70;;;;;;;29.22;54.03;100747.16;4207057;28;20067;-65
2022/09/13 03:12:06;;;;;;;6.32;3.58;;;;;;;29.19;54.35;100736.59;4214749;28;20097;-65
2022/09/13 03:14:19;;;;;;;;;;;;;;;29.19;54.26;100736.59;4182148;28;20542;-65
2022/09/13 03:16:54;;;;;;;10.88;4.78;;;;;;;29.26;54.02;100725.56;4186024;28;19966;-65
2022/09/13 03:19:16;;;;;;;9.20;4.78;;;;;;;29.25;53.81;100713.47;4199922;28;20048;-65
2022/09/13 03:21:49;;;;;;;6.05;4.50;;;;;;;29.26;53.93;100686.94;4197932;28;20037;-64
2022/09/13 03:24:14;;;;;;;6.82;4.57;;;;;;;29.17;54.22;100674.91;4198277;28;20526;-64
2022/09/13 03:26:51;;;;;;;24.75;5.30;;;;;;;29.25;54.09;100696.56;4182478;28;20100;-65
2022/09/13 03:29:12;;;;;;;26.52;5.50;;;;;;;29.27;54.16;100713.94;4153250;28;20374;-65
2022/09/13 03:31:29;;;;;;;35.33;5.90;;;;;;;29.24;53.97;100728.75;4181527;28;20041;-64
2022/09/13 03:33:42;;;;;;;39.15;6.40;;;;;;;29.27;54.05;100744.94;4197424;28;20464;-64
2022/09/13 03:35:58;;;;;;;36.63;6.30;;;;;;;29.20;54.07;100722.16;4181382;28;20036;-65
2022/09/13 03:38:14;;;;;;;16.23;5.05;;;;;;;29.25;54.11;100730.41;4185145;28;20045;-65
2022/09/13 03:40:41;;;;;;;29.58;6.55;;;;;;;29.18;54.14;100721.66;4195883;28;20052;-65
2022/09/13 03:42:47;;;;;;;21.65;5.05;;;;;;;29.25;54.28;100721.94;4175183;28;20048;-65
2022/09/13 03:44:51;;;;;;;21.10;5.55;;;;;;;29.25;54.07;100730.41;4180660;28;20090;-66
2022/09/13 03:46:56;;;;;;;21.70;5.43;;;;;;;29.28;54.34;100731.72;4195862;28;20427;-65
2022/09/13 03:49:05;;;;;;;20.42;4.75;;;;;;;29.30;54.01;100735.81;4197835;28;20261;-65
2022/09/13 03:51:09;;;;;;;18.10;5.35;;;;;;;29.33;53.90;100743.59;4197330;28;20093;-65
2022/09/13 03:53:13;;;;;;;11.32;4.05;;;;;;;29.34;53.46;100739.59;4197971;28;20517;-65
2022/09/13 03:55:18;;;;;;;11.57;4.45;;;;;;;29.20;53.36;100721.31;4197806;28;20094;-64
2022/09/13 03:57:26;;;;;;;14.63;4.75;;;;;;;29.37;53.44;100750.19;4196681;28;20515;-64
2022/09/13 03:59:30;;;;;;;13.25;4.50;;;;;;;29.37;53.36;100749.38;4197523;28;20040;-65
2022/09/13 04:01:32;;;;;;;16.77;5.25;;;;;;;29.40;53.42;100754.31;4197727;28;20048;-65
2022/09/13 04:03:33;;;;;;;10.27;4.90;;;;;;;29.41;53.29;100743.84;4187858;28;20053;-64
2022/09/13 04:05:34;;;;;;;15.52;5.03;;;;;;;29.42;53.55;100739.91;4193908;28;20037;-64
2022/09/13 04:07:38;;;;;;;11.68;5.35;;;;;;;29.40;53.62;100730.94;4195203;28;20557;-65
2022/09/13 04:09:40;;;;;;;14.80;4.53;;;;;;;29.39;53.30;100713.22;4201092;28;20070;-64
2022/09/13 04:11:41;;;;;;;12.68;4.75;;;;;;;29.43;53.54;100724.63;4212886;28;20180;-65
2022/09/13 04:13:42;;;;;;;11.75;4.43;;;;;;;29.42;53.15;100715.34;4200918;28;20048;-64
2022/09/13 04:15:43;;;;;;;9.82;4.88;;;;;;;29.41;53.42;100710.03;4206052;28;20036;-64
2022/09/13 04:17:45;;;;;;;13.55;4.88;;;;;;;29.38;53.56;100703.94;4214162;28;20020;-64
2022/09/13 04:19:46;;;;;;;14.80;5.03;;;;;;;29.44;53.24;100712.16;4214108;28;20028;-65
2022/09/13 04:21:52;;;;;;;9.40;4.57;;;;;;;29.43;53.53;100711.34;4202423;28;20481;-65
2022/09/13 04:23:53;;;;;;;9.82;4.70;;;;;;;29.35;53.51;100695.34;4200772;28;20036;-65
2022/09/13 04:26:00;;;;;;;10.65;4.57;;;;;;;29.43;53.46;100714.16;4200263;28;20040;-65
2022/09/13 04:28:05;;;;;;;10.85;4.55;;;;;;;29.44;53.56;100715.00;4201075;28;20125;-64
2022/09/13 04:30:07;;;;;;;9.77;4.93;;;;;;;29.44;53.33;100709.34;4201088;28;20491;-65
2022/09/13 04:32:09;;;;;;;8.32;4.82;;;;;;;29.45;53.52;100717.44;4200527;28;20097;-65
2022/09/13 04:34:11;;;;;;;10.73;4.85;;;;;;;29.45;53.52;100706.19;4200763;28;20036;-64
2022/09/13 04:36:13;;;;;;;8.15;4.68;;;;;;;29.46;53.63;100707.00;4200548;28;20484;-65
2022/09/13 04:38:14;;;;;;;12.23;4.82;;;;;;;29.47;53.70;100703.03;4200707;28;20094;-65
2022/09/13 04:40:15;;;;;;;10.70;4.75;;;;;;;29.46;53.50;100690.09;4200441;28;20044;-65
2022/09/13 04:42:18;;;;;;;5.55;4.22;;;;;;;29.44;53.66;100698.06;4200242;28;20024;-65
2022/09/13 04:44:23;;;;;;;5.68;3.88;;;;;;;29.44;53.82;100678.34;4200091;28;20094;-65
2022/09/13 04:46:24;;;;;;;6.32;4.45;;;;;;;29.46;53.44;100673.16;4199718;28;20036;-64
2022/09/13 04:48:28;;;;;;;9.48;5.28;;;;;;;29.37;53.42;100660.00;4200254;28;20036;-65
2022/09/13 04:50:29;;;;;;;13.33;4.67;;;;;;;29.46;53.47;100673.16;4199002;28;20072;-65
2022/09/13 04:52:31;;;;;;;6.30;4.13;;;;;;;29.45;53.48;100660.25;4200092;28;20422;-65
2022/09/13 04:54:32;;;;;;;10.13;5.00;;;;;;;29.47;53.46;100663.56;4200747;28;20044;-64
2022/09/13 04:56:33;;;;;;;7.88;4.57;;;;;;;29.47;53.40;100657.94;4200047;28;20037;-65
2022/09/13 04:58:35;;;;;;;7.80;4.45;;;;;;;29.46;53.55;100659.06;4186159;28;20040;-65
2022/09/13 05:00:36;;;;;;;8.32;4.70;;;;;;;29.48;53.28;100665.22;4200593;28;20091;-65
2022/09/13 05:02:37;;;;;;;9.27;4.70;;;;;;;29.45;53.57;100668.72;4214669;28;20032;-65
2022/09/13 05:04:39;;;;;;;6.95;4.28;;;;;;;29.47;53.31;100658.75;4216556;28;20036;-65
2022/09/13 05:06:40;;;;;;;8.88;4.70;;;;;;;29.48;53.49;100659.56;4216990;28;20032;-65
2022/09/13 05:08:41;;;;;;;7.60;4.68;;;;;;;29.47;53.15;100647.47;4216824;28;20040;-65
2022/09/13 05:10:42;;;;;;;10.60;4.70;;;;;;;29.47;53.45;100647.47;4216499;28;20089;-65
2022/09/13 05:12:43;;;;;;;7.80;4.40;;;;;;;29.41;53.15;100643.19;4200683;28;20509;-65
2022/09/13 05:14:47;;;;;;;7.40;4.57;;;;;;;29.48;53.54;100637.84;4200221;28;20052;-65
2022/09/13 05:16:48;;;;;;;7.80;5.10;;;;;;;29.48;53.45;100631.38;4200100;28;20098;-65
2022/09/13 05:18:50;;;;;;;5.05;4.53;;;;;;;29.31;53.35;100613.47;4199771;28;20041;-65
2022/09/13 05:20:56;;;;;;;7.47;4.38;;;;;;;29.50;53.21;100640.31;4199773;28;20078;-65
2022/09/13 05:22:59;;;;;;;11.23;5.35;;;;;;;29.49;53.26;100642.31;4200052;28;20040;-65
2022/09/13 05:25:01;;;;;;;6.90;4.20;;;;;;;29.46;53.25;100634.56;4200423;28;20097;-65
2022/09/13 05:27:02;;;;;;;10.43;4.38;;;;;;;29.50;52.94;100649.59;4199907;28;20037;-64
2022/09/13 05:29:04;;;;;;;10.65;5.22;;;;;;;29.48;53.33;100642.66;4193757;28;20090;-64
2022/09/13 05:31:06;;;;;;;10.88;4.68;;;;;;;29.50;53.40;100651.56;4192373;28;20121;-65
2022/09/13 05:33:08;;;;;;;9.77;5.07;;;;;;;29.51;52.97;100656.06;4198703;28;20037;-65
2022/09/13 05:35:18;;;;;;;9.75;5.05;;;;;;;29.49;53.23;100655.56;4199060;28;20102;-64
2022/09/13 05:37:19;;;;;;;8.73;5.28;;;;;;;29.51;53.20;100664.53;4199504;28;20040;-65
2022/09/13 05:39:21;;;;;;;7.82;5.00;;;;;;;29.48;53.23;100665.22;4199879;28;20028;-65
2022/09/13 05:41:23;;;;;;;8.02;4.65;;;;;;;29.48;53.04;100659.56;4199439;28;20553;-64
2022/09/13 05:43:26;;;;;;;8.43;4.90;;;;;;;29.51;53.19;100658.88;4199694;28;20037;-65
2022/09/13 05:45:28;;;;;;;9.40;4.13;;;;;;;29.51;53.13;100659.72;4199711;28;20045;-65
2022/09/13 05:47:29;;;;;;;8.93;5.28;;;;;;;29.49;53.35;100644.31;4199773;28;20098;-65
2022/09/13 05:49:31;;;;;;;7.50;4.93;;;;;;;29.50;53.32;100649.59;4198230;28;20040;-65
2022/09/13 05:51:32;;;;;;;10.52;5.00;;;;;;;29.51;53.18;100648.44;4185996;28;20036;-65
2022/09/13 05:53:34;;;;;;;8.00;4.90;;;;;;;29.51;53.08;100641.97;4199833;28;20089;-65
2022/09/13 05:55:36;;;;;;;8.50;4.70;;;;;;;29.51;53.30;100639.97;4199533;28;20036;-65
2022/09/13 05:57:37;;;;;;;10.18;5.00;;;;;;;29.52;53.38;100643.63;4199543;28;20480;-66
2022/09/13 05:59:39;;;;;;;7.57;4.97;;;;;;;29.51;53.38;100628.69;4199134;28;20094;-65
2022/09/13 06:01:47;;;;;;;7.32;5.40;;;;;;;29.44;53.34;100613.50;4205911;28;20557;-65
2022/09/13 06:03:50;;;;;;;9.35;4.85;;;;;;;29.53;53.50;100628.34;4215643;28;20047;-69
2022/09/13 06:05:56;;;;;;;8.18;4.72;;;;;;;29.52;53.40;100624.69;4215535;28;20488;-65
2022/09/13 06:07:57;;;;;;;8.80;5.00;;;;;;;29.54;53.31;100627.16;4203564;28;20036;-67
2022/09/13 06:10:01;;;;;;;5.38;4.88;;;;;;;28.97;53.25;100526.47;4194797;28;20032;-65
2022/09/13 06:12:03;;;;;;;7.88;4.88;;;;;;;29.51;53.13;100619.41;4203022;28;20495;-65
2022/09/13 06:14:04;;;;;;;11.63;5.32;;;;;;;29.51;53.09;100613.78;4215469;28;20028;-65
2022/09/13 06:16:08;;;;;;;7.70;4.90;;;;;;;29.51;52.98;100619.41;4210728;28;20086;-65
2022/09/13 06:18:09;;;;;;;7.30;5.03;;;;;;;29.51;53.25;100619.41;4215602;28;20098;-65
2022/09/13 06:20:10;;;;;;;9.15;4.95;;;;;;;29.52;53.12;100619.06;4213763;28;20044;-64
2022/09/13 06:22:12;;;;;;;9.18;4.85;;;;;;;29.47;52.95;100607.19;4198636;28;20110;-64
2022/09/13 06:24:13;;;;;;;7.57;5.22;;;;;;;29.52;52.99;100616.25;4199004;28;20118;-64
2022/09/13 06:26:17;;;;;;;7.28;5.20;;;;;;;29.51;52.94;100613.78;4198992;28;20040;-64
2022/09/13 06:28:18;;;;;;;5.53;5.00;;;;;;;29.43;53.24;100594.97;4203596;28;20048;-65
2022/09/13 06:30:19;;;;;;;8.40;5.88;;;;;;;29.51;53.06;100605.31;4204910;28;20097;-64
2022/09/13 06:32:24;;;;;;;7.07;4.43;;;;;;;29.49;53.24;100610.47;4198664;28;20036;-63
2022/09/13 06:34:26;;;;;;;;;;;;;;;29.49;53.01;100610.47;4199823;28;20097;-64
2022/09/13 06:36:28;;;;;;;6.90;5.55;;;;;;;29.57;52.89;100601.13;4198730;28;20420;-64
2022/09/13 06:38:29;;;;;;;5.65;5.05;;;;;;;29.56;52.93;100600.31;4194989;28;20082;-64
2022/09/13 06:40:31;;;;;;;5.80;5.18;;;;;;;29.55;53.16;100609.94;4198528;28;20053;-63
2022/09/13 06:42:36;;;;;;;7.85;5.13;;;;;;;29.54;52.89;100601.78;4198433;28;20041;-64
2022/09/13 06:44:41;;;;;;;9.85;5.25;;;;;;;29.54;53.41;100602.59;4198680;28;20044;-64
2022/09/13 06:46:42;;;;;;;7.35;5.47;;;;;;;29.54;53.23;100596.97;4195233;28;20102;-63
2022/09/13 06:48:44;;;;;;;6.63;5.03;;;;;;;29.54;53.21;100598.97;4198307;28;20357;-64
2022/09/13 06:50:45;;;;;;;6.47;5.07;;;;;;;29.54;53.46;100596.97;4198294;28;20036;-64
2022/09/13 06:52:49;;;;;;;6.60;5.47;;;;;;;29.55;53.43;100603.47;4198380;28;20549;-64
2022/09/13 06:54:50;;;;;;;7.05;5.78;;;;;;;29.53;53.61;100600.16;4197447;28;20087;-64
2022/09/13 06:56:54;;;;;;;7.80;5.40;;;;;;;29.47;53.53;100584.63;4194550;28;20082;-64
2022/09/13 06:58:58;;;;;;;7.93;4.90;;;;;;;29.55;53.59;100593.03;4198437;28;20040;-64
2022/09/13 07:01:23;;;;;;;6.72;5.22;;;;;;;29.51;53.58;100588.41;4198054;28;20044;-64
2022/09/13 07:03:26;;;;;;;6.10;5.28;;;;;;;29.39;53.37;100561.00;4202104;28;20442;-64
2022/09/13 07:05:27;;;;;;;7.18;5.63;;;;;;;29.55;53.72;100583.72;4215022;28;20043;-64
2022/09/13 07:07:29;;;;;;;6.18;5.57;;;;;;;29.42;53.59;100559.50;4211914;28;20041;-64
2022/09/13 07:09:33;;;;;;;6.30;5.45;;;;;;;29.56;53.60;100576.94;4214797;28;20101;-63
2022/09/13 07:11:37;;;;;;;8.73;5.88;;;;;;;29.56;53.39;100579.75;4207760;28;20049;-63
2022/09/13 07:13:41;;;;;;;7.22;5.30;;;;;;;29.56;53.53;100576.94;4186802;28;20078;-64
2022/09/13 07:15:42;;;;;;;5.90;5.15;;;;;;;29.56;53.33;100574.13;4197667;28;20032;-63
2022/09/13 07:17:44;;;;;;;7.13;5.53;;;;;;;29.56;53.63;100574.13;4196479;28;20041;-64
2022/09/13 07:19:45;;;;;;;5.28;4.78;;;;;;;29.54;53.58;100582.88;4197850;28;20032;-64
2022/09/13 07:21:48;;;;;;;6.50;5.45;;;;;;;29.55;53.61;100586.53;4197647;28;20089;-64
2022/09/13 07:23:51;;;;;;;5.80;5.18;;;;;;;29.56;53.63;100582.56;4197903;28;20058;-64
2022/09/13 07:26:00;;;;;;;5.55;4.88;;;;;;;29.54;53.32;100582.88;4195684;28;20090;-64
2022/09/13 07:28:07;;;;;;;6.68;5.13;;;;;;;29.55;53.53;100578.09;4197678;28;20044;-64
2022/09/13 07:30:09;;;;;;;7.25;5.68;;;;;;;29.55;53.37;100570.47;4196569;28;20091;-64
2022/09/13 07:32:10;;;;;;;6.30;5.03;;;;;;;29.55;53.52;100566.81;4197999;28;20036;-63
2022/09/13 07:34:16;;;;;;;8.93;5.10;;;;;;;29.55;53.57;100566.81;4197949;28;20062;-64
2022/09/13 07:36:18;;;;;;;5.70;4.90;;;;;;;29.56;53.53;100580.56;4194782;28;20045;-64
2022/09/13 07:38:19;;;;;;;7.60;5.03;;;;;;;29.56;53.55;100571.31;4192465;28;20821;-64
2022/09/13 07:40:20;;;;;;;6.60;4.88;;;;;;;29.55;53.39;100570.47;4180903;28;20098;-64
2022/09/13 07:42:21;;;;;;;8.13;4.97;;;;;;;29.55;53.41;100558.34;4187465;28;20118;-62
2022/09/13 07:44:25;;;;;;;7.38;5.10;;;;;;;29.53;53.47;100560.69;4196899;28;20036;-63
2022/09/13 07:46:32;;;;;;;6.65;5.22;;;;;;;29.54;53.44;100557.50;4211240;28;20031;-64
2022/09/13 07:48:36;;;;;;;7.70;4.72;;;;;;;29.56;53.55;100560.03;4206361;28;20094;-64
2022/09/13 07:50:37;;;;;;;6.75;4.88;;;;;;;29.55;53.38;100555.53;4203282;28;20089;-64
2022/09/13 07:52:39;;;;;;;8.07;4.90;;;;;;;29.55;53.39;100552.72;4212039;28;20101;-64
2022/09/13 07:54:41;;;;;;;8.90;4.82;;;;;;;29.57;53.53;100572.94;4207121;28;20098;-62
2022/09/13 07:56:42;;;;;;;6.28;4.40;;;;;;;29.56;53.37;100565.66;4209978;28;20089;-64
2022/09/13 07:58:45;;;;;;;5.40;4.50;;;;;;;29.55;53.68;100559.19;4195743;28;20040;-64
2022/09/13 08:00:49;;;;;;;5.43;4.93;;;;;;;29.46;53.45;100543.50;4195502;28;20196;-64
2022/09/13 08:02:51;;;;;;;7.47;4.37;;;;;;;29.56;53.44;100565.66;4204334;28;20093;-64
2022/09/13 08:04:52;;;;;;;5.78;4.95;;;;;;;29.54;53.47;100570.78;4203833;28;20098;-64
2022/09/13 08:06:53;;;;;;;8.40;5.30;;;;;;;29.55;53.21;100564.84;4210738;28;20040;-64
2022/09/13 08:08:55;;;;;;;5.13;4.45;;;;;;;29.55;53.30;100576.13;4212653;28;20077;-64
2022/09/13 08:10:57;;;;;;;7.53;4.50;;;;;;;29.55;53.19;100569.63;4202728;28;20526;-64
2022/09/13 08:13:01;;;;;;;6.65;5.00;;;;;;;29.55;53.39;100564.00;4197485;28;20098;-63
2022/09/13 08:15:03;;;;;;;5.78;5.22;;;;;;;29.54;53.24;100557.50;4197784;28;20025;-64
2022/09/13 08:17:05;;;;;;;5.70;4.70;;;;;;;29.54;53.45;100557.50;4212059;28;20035;-64
2022/09/13 08:19:09;;;;;;;6.07;4.88;;;;;;;29.41;53.19;100552.19;4211371;28;20036;-63
2022/09/13 08:21:11;;;;;;;6.23;5.03;;;;;;;29.55;53.34;100569.63;4212051;28;20106;-64
2022/09/13 08:23:13;;;;;;;5.95;4.55;;;;;;;29.47;53.49;100551.63;4210538;28;20268;-63
2022/09/13 08:25:14;;;;;;;5.85;4.72;;;;;;;29.55;53.36;100564.00;4212401;28;20058;-64
2022/09/13 08:27:18;;;;;;;5.63;4.03;;;;;;;29.54;53.37;100568.78;4203628;28;20123;-63
2022/09/13 08:29:20;;;;;;;7.03;4.32;;;;;;;29.55;53.40;100564.00;4206011;28;20040;-64
2022/09/13 08:31:21;;;;;;;4.72;4.03;;;;;;;29.53;53.17;100567.13;4200962;28;20048;-65
2022/09/13 08:33:23;;;;;;;6.25;4.28;;;;;;;29.51;53.15;100568.69;4206134;28;20105;-63
2022/09/13 08:35:24;;;;;;;6.43;4.40;;;;;;;29.54;53.37;100579.22;4195759;28;20048;-64
2022/09/13 08:37:30;;;;;;;6.13;4.13;;;;;;;29.40;53.42;100567.47;4195487;28;20052;-64
2022/09/13 08:39:32;;;;;;;4.90;4.18;;;;;;;29.55;53.20;100580.91;4195202;28;20546;-64
2022/09/13 08:41:53;;;;;;;6.35;3.88;;;;;;;29.53;53.45;100583.22;4195691;28;20044;-64
2022/09/13 08:44:03;;;;;;;5.32;4.40;;;;;;;29.53;53.17;100577.59;4197625;28;20054;-64
2022/09/13 08:46:11;;;;;;;4.32;3.67;;;;;;;29.54;53.18;100585.69;4195603;28;20094;-64
2022/09/13 08:48:22;;;;;;;6.82;4.07;;;;;;;29.55;53.12;100589.38;4197474;28;20094;-64
2022/09/13 08:50:32;;;;;;;4.95;3.83;;;;;;;29.54;53.11;100590.50;4195703;28;20028;-65
2022/09/13 08:52:54;;;;;;;6.25;4.25;;;;;;;29.42;53.14;100565.94;4196851;28;20086;-64
2022/09/13 08:54:56;;;;;;;4.50;4.10;;;;;;;29.55;53.33;100576.13;4197155;28;20438;-63
2022/09/13 08:57:12;;;;;;;5.00;4.00;;;;;;;29.55;53.15;100587.41;4191890;28;20123;-64
2022/09/13 09:00:01;;;;;;;6.15;4.30;;;;;;;29.51;53.22;100585.59;4180333;28;20053;-64
2022/09/13 09:02:15;;;;;;;4.38;3.97;;;;;;;29.56;53.18;100588.22;4175371;28;20094;-63
2022/09/13 09:04:28;;;;;;;4.93;4.13;;;;;;;29.54;53.20;100596.16;4180635;28;20049;-64
2022/09/13 09:06:30;;;;;;;7.78;4.20;;;;;;;29.55;52.97;100590.22;4180408;28;20373;-64
2022/09/13 09:08:59;;;;;;;4.57;3.65;;;;;;;29.50;53.02;100590.38;4203225;28;20040;-64
2022/09/13 09:11:09;;;;;;;5.13;3.75;;;;;;;29.55;53.00;100589.38;4215472;28;20036;-64
2022/09/13 09:13:40;;;;;;;5.10;4.05;;;;;;;29.51;52.95;100585.59;4216538;28;20394;-63
2022/09/13 09:15:49;;;;;;;5.78;3.58;;;;;;;29.54;53.05;100582.06;4205539;28;20091;-64
2022/09/13 09:18:00;;;;;;;6.38;3.90;;;;;;;29.54;52.99;100584.88;4210488;28;20087;-64
2022/09/13 09:20:37;;;;;;;4.47;3.85;;;;;;;29.42;53.15;100565.13;4198291;28;20040;-63
2022/09/13 09:22:38;;;;;;;5.13;4.03;;;;;;;29.55;52.91;100578.09;4196630;28;20044;-64
2022/09/13 09:24:43;;;;;;;5.15;3.35;;;;;;;29.54;53.10;100582.06;4200740;28;20094;-64
2022/09/13 09:26:45;;;;;;;4.47;4.07;;;;;;;29.53;52.98;100571.97;4198470;28;20040;-64
2022/09/13 09:29:04;;;;;;;7.43;3.75;;;;;;;29.51;53.16;100574.31;4216723;28;20036;-63
2022/09/13 09:31:28;;;;;;;4.60;3.90;;;;;;;29.51;53.05;100571.50;4193993;28;20507;-64
2022/09/13 09:33:41;;;;;;;5.05;3.25;;;;;;;29.52;52.99;100568.31;4206582;28;20544;-64
2022/09/13 09:36:10;;;;;;;4.30;3.90;;;;;;;29.50;52.91;100561.38;4204500;28;20048;-63
2022/09/13 09:38:36;;;;;;;4.88;3.92;;;;;;;29.49;53.10;100548.44;4212355;28;20036;-64
2022/09/13 09:40:37;;;;;;;4.88;3.38;;;;;;;29.53;52.90;100546.59;4198892;28;20078;-65
2022/09/13 09:42:48;;;;;;;4.60;3.67;;;;;;;29.48;52.95;100552.44;4199496;28;20037;-64
2022/09/13 09:44:59;;;;;;;5.50;3.70;;;;;;;29.52;53.08;100559.03;4199298;28;20040;-64
2022/09/13 09:47:15;;;;;;;3.78;3.47;;;;;;;29.49;52.84;100571.00;4197704;28;20032;-64
2022/09/13 09:51:48;;;;;;;;;;;;;;;29.50;53.00;100589.56;4197182;28;20078;-64
2022/09/13 09:54:04;;;;;;;6.05;3.42;;;;;;;29.56;52.94;100588.22;4197750;28;20421;-64
2022/09/13 09:56:25;;;;;;;5.13;3.95;;;;;;;29.55;53.01;100584.56;4199237;28;20029;-63